KHVR/HVR METAR and TAF weather

Enter ICAO airport designator
Station Type Date Time Source
KHVR METAR 2020/01/26 03:53 UTC NOAA

KHVR 260353Z AUTO 28005KT 10SM CLR M02/M04 A2993 RMK AO2 SLP161 T10171039


Station Type Date Time Source
KHVR Decoded METAR 2020/01/26 03:53 UTC NOAA

HAVRE CITY-COUNTY AIRPORT, MT, United States (KHVR) 48-33N 109-46W 787M
Jan 25, 2020 - 10:53 PM EST / 2020.01.26 0353 UTC
Wind: from the W (280 degrees) at 6 MPH (5 KT):0
Visibility: 10 mile(s):0
Sky conditions: clear
Temperature: 28.9 F (-1.7 C)
Windchill: 23 F (-5 C):1
Dew Point: 25.0 F (-3.9 C)
Relative Humidity: 84%
Pressure (altimeter): 29.93 in. Hg (1013 hPa)
ob: KHVR 260353Z AUTO 28005KT 10SM CLR M02/M04 A2993 RMK AO2 SLP161 T10171039
cycle: 4

Station Type Date Time Source
KHVR TAF 2020/01/25 18:57 UTC NOAA

TAF KHVR 251754Z 2518/2618 22018KT P6SM SCT060 BKN090
FM252200 24007KT P6SM SCT080 BKN120
FM261500 11005KT P6SM SCT050 BKN080

Example: see airport list